sensor_id;sensor_type;location;lat;lon;timestamp;pressure;altitude;pressure_sealevel;temperature;humidity
78117;BME280;69042;59.120;37.904;2023-05-31T00:01:39;99894.13;;;12.90;68.26
78117;BME280;69042;59.120;37.904;2023-05-31T00:04:05;99900.63;;;12.83;68.41
78117;BME280;69042;59.120;37.904;2023-05-31T00:06:33;99908.09;;;12.75;68.51
78117;BME280;69042;59.120;37.904;2023-05-31T00:09:01;99912.06;;;12.66;68.83
78117;BME280;69042;59.120;37.904;2023-05-31T00:11:27;99911.53;;;12.59;68.77
78117;BME280;69042;59.120;37.904;2023-05-31T00:13:53;99908.31;;;12.54;69.03
78117;BME280;69042;59.120;37.904;2023-05-31T00:16:19;99908.41;;;12.53;69.16
78117;BME280;69042;59.120;37.904;2023-05-31T00:18:45;99907.56;;;12.52;69.13
78117;BME280;69042;59.120;37.904;2023-05-31T00:21:12;99902.31;;;12.52;69.14
78117;BME280;69042;59.120;37.904;2023-05-31T00:23:38;99897.97;;;12.51;69.09
78117;BME280;69042;59.120;37.904;2023-05-31T00:26:04;99903.28;;;12.49;69.19
78117;BME280;69042;59.120;37.904;2023-05-31T00:28:30;99909.47;;;12.48;69.21
78117;BME280;69042;59.120;37.904;2023-05-31T00:30:56;99923.78;;;12.43;69.23
78117;BME280;69042;59.120;37.904;2023-05-31T00:33:23;99915.13;;;12.41;69.50
78117;BME280;69042;59.120;37.904;2023-05-31T00:35:49;99911.81;;;12.37;69.51
78117;BME280;69042;59.120;37.904;2023-05-31T00:38:15;99902.59;;;12.30;69.51
78117;BME280;69042;59.120;37.904;2023-05-31T00:40:41;99907.97;;;12.27;69.63
78117;BME280;69042;59.120;37.904;2023-05-31T00:43:08;99892.44;;;12.24;69.66
78117;BME280;69042;59.120;37.904;2023-05-31T00:45:34;99896.06;;;12.21;69.34
78117;BME280;69042;59.120;37.904;2023-05-31T00:48:01;99894.47;;;12.19;69.67
78117;BME280;69042;59.120;37.904;2023-05-31T00:50:27;99900.59;;;12.18;69.62
78117;BME280;69042;59.120;37.904;2023-05-31T00:52:57;99907.56;;;12.19;69.92
78117;BME280;69042;59.120;37.904;2023-05-31T00:55:24;99911.78;;;12.21;69.91
78117;BME280;69042;59.120;37.904;2023-05-31T00:57:50;99912.56;;;12.23;69.86
78117;BME280;69042;59.120;37.904;2023-05-31T01:00:18;99912.47;;;12.25;70.01
78117;BME280;69042;59.120;37.904;2023-05-31T01:02:44;99904.63;;;12.25;69.90
78117;BME280;69042;59.120;37.904;2023-05-31T01:05:11;99920.41;;;12.23;69.87
78117;BME280;69042;59.120;37.904;2023-05-31T01:07:37;99916.19;;;12.21;69.84
78117;BME280;69042;59.120;37.904;2023-05-31T01:10:05;99914.72;;;12.15;70.09
78117;BME280;69042;59.120;37.904;2023-05-31T01:12:44;99913.94;;;12.13;70.09
78117;BME280;69042;59.120;37.904;2023-05-31T01:15:13;99911.31;;;12.13;70.13
78117;BME280;69042;59.120;37.904;2023-05-31T01:20:35;99911.50;;;12.10;69.97
78117;BME280;69042;59.120;37.904;2023-05-31T01:28:11;99905.31;;;12.11;69.95
78117;BME280;69042;59.120;37.904;2023-05-31T01:30:40;99887.84;;;12.12;70.06
78117;BME280;69042;59.120;37.904;2023-05-31T01:33:10;99891.06;;;12.17;69.91
78117;BME280;69042;59.120;37.904;2023-05-31T01:35:37;99902.97;;;12.22;69.77
78117;BME280;69042;59.120;37.904;2023-05-31T01:38:04;99899.44;;;12.23;69.61
78117;BME280;69042;59.120;37.904;2023-05-31T01:40:34;99889.88;;;12.22;69.41
78117;BME280;69042;59.120;37.904;2023-05-31T01:43:01;99883.81;;;12.22;69.38
78117;BME280;69042;59.120;37.904;2023-05-31T01:45:29;99883.75;;;12.23;69.37
78117;BME280;69042;59.120;37.904;2023-05-31T01:48:00;99882.66;;;12.27;69.54
78117;BME280;69042;59.120;37.904;2023-05-31T01:50:28;99878.00;;;12.33;69.73
78117;BME280;69042;59.120;37.904;2023-05-31T01:52:54;99867.97;;;12.41;69.58
78117;BME280;69042;59.120;37.904;2023-05-31T01:55:20;99866.72;;;12.48;69.24
78117;BME280;69042;59.120;37.904;2023-05-31T01:57:47;99867.31;;;12.53;68.83
78117;BME280;69042;59.120;37.904;2023-05-31T02:00:14;99864.69;;;12.53;68.57
78117;BME280;69042;59.120;37.904;2023-05-31T02:02:43;99859.44;;;12.53;68.27
78117;BME280;69042;59.120;37.904;2023-05-31T02:05:12;99862.13;;;12.52;68.41
78117;BME280;69042;59.120;37.904;2023-05-31T02:07:40;99855.22;;;12.50;68.47
78117;BME280;69042;59.120;37.904;2023-05-31T02:10:07;99853.69;;;12.46;68.02
78117;BME280;69042;59.120;37.904;2023-05-31T02:12:35;99861.72;;;12.43;68.16
78117;BME280;69042;59.120;37.904;2023-05-31T02:15:02;99854.88;;;12.41;68.25
78117;BME280;69042;59.120;37.904;2023-05-31T02:17:30;99867.97;;;12.41;68.27
78117;BME280;69042;59.120;37.904;2023-05-31T02:19:59;99853.94;;;12.42;68.33
78117;BME280;69042;59.120;37.904;2023-05-31T02:22:25;99848.50;;;12.45;68.24
78117;BME280;69042;59.120;37.904;2023-05-31T02:24:51;99858.59;;;12.53;68.45
78117;BME280;69042;59.120;37.904;2023-05-31T02:27:18;99857.41;;;12.58;68.25
78117;BME280;69042;59.120;37.904;2023-05-31T02:29:45;99849.41;;;12.61;68.18
78117;BME280;69042;59.120;37.904;2023-05-31T02:32:11;99860.28;;;12.69;68.30
78117;BME280;69042;59.120;37.904;2023-05-31T02:34:38;99869.75;;;12.72;68.06
78117;BME280;69042;59.120;37.904;2023-05-31T02:37:04;99867.81;;;12.76;67.58
78117;BME280;69042;59.120;37.904;2023-05-31T02:39:30;99872.16;;;12.77;67.77
78117;BME280;69042;59.120;37.904;2023-05-31T02:41:56;99869.53;;;12.77;67.75
78117;BME280;69042;59.120;37.904;2023-05-31T02:44:23;99869.44;;;12.78;67.77
78117;BME280;69042;59.120;37.904;2023-05-31T02:46:50;99868.25;;;12.84;67.89
78117;BME280;69042;59.120;37.904;2023-05-31T02:49:16;99869.59;;;12.91;67.99
78117;BME280;69042;59.120;37.904;2023-05-31T02:51:42;99870.19;;;12.96;67.27
78117;BME280;69042;59.120;37.904;2023-05-31T02:54:34;99874.41;;;12.99;67.41
78117;BME280;69042;59.120;37.904;2023-05-31T02:57:02;99874.41;;;12.99;67.35
78117;BME280;69042;59.120;37.904;2023-05-31T02:59:33;99872.66;;;12.99;67.23
78117;BME280;69042;59.120;37.904;2023-05-31T03:02:02;99875.28;;;12.99;67.25
78117;BME280;69042;59.120;37.904;2023-05-31T03:04:41;99881.19;;;13.03;67.16
78117;BME280;69042;59.120;37.904;2023-05-31T03:07:16;99873.22;;;13.04;67.07
78117;BME280;69042;59.120;37.904;2023-05-31T03:09:43;99876.44;;;13.09;67.23
78117;BME280;69042;59.120;37.904;2023-05-31T03:12:10;99877.97;;;13.13;67.01
78117;BME280;69042;59.120;37.904;2023-05-31T03:14:36;99882.94;;;13.18;66.83
78117;BME280;69042;59.120;37.904;2023-05-31T03:17:03;99884.53;;;13.21;66.82
78117;BME280;69042;59.120;37.904;2023-05-31T03:19:30;99886.00;;;13.26;66.69
78117;BME280;69042;59.120;37.904;2023-05-31T03:21:56;99891.91;;;13.30;66.39
78117;BME280;69042;59.120;37.904;2023-05-31T03:24:25;99889.88;;;13.35;66.43
78117;BME280;69042;59.120;37.904;2023-05-31T03:26:54;99885.13;;;13.42;66.42
78117;BME280;69042;59.120;37.904;2023-05-31T03:29:21;99884.97;;;13.45;66.14
78117;BME280;69042;59.120;37.904;2023-05-31T03:31:47;99887.31;;;13.49;66.11
78117;BME280;69042;59.120;37.904;2023-05-31T03:34:14;99898.94;;;13.45;65.99
78117;BME280;69042;59.120;37.904;2023-05-31T03:36:41;99898.94;;;13.45;66.35
78117;BME280;69042;59.120;37.904;2023-05-31T03:39:42;99895.00;;;13.52;66.21
78117;BME280;69042;59.120;37.904;2023-05-31T03:42:15;99901.84;;;13.55;65.84
78117;BME280;69042;59.120;37.904;2023-05-31T03:44:41;99887.31;;;13.49;65.88
78117;BME280;69042;59.120;37.904;2023-05-31T03:47:08;99891.13;;;13.44;65.65
78117;BME280;69042;59.120;37.904;2023-05-31T03:49:35;99888.94;;;13.36;65.87
78117;BME280;69042;59.120;37.904;2023-05-31T03:52:01;99885.75;;;13.31;66.04
78117;BME280;69042;59.120;37.904;2023-05-31T03:54:29;99879.38;;;13.35;66.34
78117;BME280;69042;59.120;37.904;2023-05-31T03:56:55;99877.16;;;13.43;66.21
78117;BME280;69042;59.120;37.904;2023-05-31T03:59:21;99880.09;;;13.53;66.14
78117;BME280;69042;59.120;37.904;2023-05-31T04:01:47;99874.50;;;13.59;66.09
78117;BME280;69042;59.120;37.904;2023-05-31T04:04:14;99881.66;;;13.71;65.89
78117;BME280;69042;59.120;37.904;2023-05-31T04:06:40;99883.63;;;13.82;65.40
78117;BME280;69042;59.120;37.904;2023-05-31T04:09:07;99877.94;;;13.90;65.28
78117;BME280;69042;59.120;37.904;2023-05-31T04:11:33;99878.44;;;13.97;64.95
78117;BME280;69042;59.120;37.904;2023-05-31T04:13:59;99889.09;;;13.93;64.63
78117;BME280;69042;59.120;37.904;2023-05-31T04:16:28;99884.78;;;13.92;64.42
78117;BME280;69042;59.120;37.904;2023-05-31T04:18:56;99886.47;;;13.93;64.59
78117;BME280;69042;59.120;37.904;2023-05-31T04:21:22;99895.97;;;13.96;64.68
78117;BME280;69042;59.120;37.904;2023-05-31T04:23:48;99884.25;;;14.02;64.42
78117;BME280;69042;59.120;37.904;2023-05-31T04:26:15;99890.94;;;14.07;64.41
78117;BME280;69042;59.120;37.904;2023-05-31T04:28:45;99905.66;;;14.10;64.31
78117;BME280;69042;59.120;37.904;2023-05-31T04:31:18;99895.72;;;14.15;63.70
78117;BME280;69042;59.120;37.904;2023-05-31T04:33:44;99890.09;;;14.21;64.05
78117;BME280;69042;59.120;37.904;2023-05-31T04:36:11;99893.06;;;14.29;63.70
78117;BME280;69042;59.120;37.904;2023-05-31T04:38:38;99887.44;;;14.35;63.79
78117;BME280;69042;59.120;37.904;2023-05-31T04:41:06;99888.41;;;14.34;63.48
78117;BME280;69042;59.120;37.904;2023-05-31T04:43:32;99876.56;;;14.27;63.35
78117;BME280;69042;59.120;37.904;2023-05-31T04:45:59;99882.22;;;14.21;63.55
78117;BME280;69042;59.120;37.904;2023-05-31T04:48:27;99873.56;;;14.19;63.86
78117;BME280;69042;59.120;37.904;2023-05-31T04:50:55;99876.19;;;14.19;63.66
78117;BME280;69042;59.120;37.904;2023-05-31T04:53:22;99872.91;;;14.15;63.78
78117;BME280;69042;59.120;37.904;2023-05-31T04:55:49;99878.81;;;14.19;63.58
78117;BME280;69042;59.120;37.904;2023-05-31T04:58:18;99877.50;;;14.26;63.63
78117;BME280;69042;59.120;37.904;2023-05-31T05:00:45;99873.63;;;14.32;63.56
78117;BME280;69042;59.120;37.904;2023-05-31T05:03:19;99878.66;;;14.36;63.71
78117;BME280;69042;59.120;37.904;2023-05-31T05:05:47;99871.09;;;14.45;63.35
78117;BME280;69042;59.120;37.904;2023-05-31T05:08:14;99869.34;;;14.60;63.54
78117;BME280;69042;59.120;37.904;2023-05-31T05:10:41;99870.16;;;14.74;63.58
78117;BME280;69042;59.120;37.904;2023-05-31T05:13:07;99867.50;;;14.89;62.90
78117;BME280;69042;59.120;37.904;2023-05-31T05:15:35;99862.50;;;14.98;62.69
78117;BME280;69042;59.120;37.904;2023-05-31T05:18:02;99864.19;;;14.99;62.68
78117;BME280;69042;59.120;37.904;2023-05-31T05:20:28;99860.31;;;15.05;62.51
78117;BME280;69042;59.120;37.904;2023-05-31T05:22:55;99861.22;;;15.18;62.99
78117;BME280;69042;59.120;37.904;2023-05-31T05:25:21;99857.78;;;15.44;62.75
78117;BME280;69042;59.120;37.904;2023-05-31T05:27:49;99858.78;;;15.68;62.49
78117;BME280;69042;59.120;37.904;2023-05-31T05:30:16;99858.41;;;15.87;62.04
78117;BME280;69042;59.120;37.904;2023-05-31T05:32:43;99848.63;;;16.02;61.26
78117;BME280;69042;59.120;37.904;2023-05-31T05:35:09;99858.09;;;16.17;60.44
78117;BME280;69042;59.120;37.904;2023-05-31T05:37:36;99855.88;;;16.24;60.37
78117;BME280;69042;59.120;37.904;2023-05-31T05:40:04;99866.63;;;16.34;60.31
78117;BME280;69042;59.120;37.904;2023-05-31T05:42:32;99864.31;;;16.42;59.81
78117;BME280;69042;59.120;37.904;2023-05-31T05:44:58;99857.22;;;16.42;59.79
78117;BME280;69042;59.120;37.904;2023-05-31T05:47:24;99863.75;;;16.50;60.08
78117;BME280;69042;59.120;37.904;2023-05-31T05:49:52;99864.78;;;16.60;59.40
78117;BME280;69042;59.120;37.904;2023-05-31T05:52:19;99867.19;;;16.63;58.88
78117;BME280;69042;59.120;37.904;2023-05-31T05:54:45;99858.03;;;16.69;58.99
78117;BME280;69042;59.120;37.904;2023-05-31T05:57:12;99858.53;;;16.74;58.92
78117;BME280;69042;59.120;37.904;2023-05-31T05:59:42;99865.91;;;16.81;58.45
78117;BME280;69042;59.120;37.904;2023-05-31T06:02:16;99860.69;;;16.93;58.63
78117;BME280;69042;59.120;37.904;2023-05-31T06:04:43;99854.53;;;17.05;58.62
78117;BME280;69042;59.120;37.904;2023-05-31T06:07:10;99848.84;;;17.22;58.28
78117;BME280;69042;59.120;37.904;2023-05-31T06:09:36;99843.59;;;17.34;57.65
78117;BME280;69042;59.120;37.904;2023-05-31T06:12:03;99846.53;;;17.42;57.49
78117;BME280;69042;59.120;37.904;2023-05-31T06:14:32;99837.19;;;17.49;57.16
78117;BME280;69042;59.120;37.904;2023-05-31T06:16:59;99835.88;;;17.55;56.69
78117;BME280;69042;59.120;37.904;2023-05-31T06:19:26;99831.19;;;17.58;57.04
78117;BME280;69042;59.120;37.904;2023-05-31T06:21:53;99826.53;;;17.62;56.57
78117;BME280;69042;59.120;37.904;2023-05-31T06:24:22;99828.94;;;17.65;56.73
78117;BME280;69042;59.120;37.904;2023-05-31T06:26:48;99817.88;;;17.60;56.12
78117;BME280;69042;59.120;37.904;2023-05-31T06:29:15;99818.47;;;17.52;56.08
78117;BME280;69042;59.120;37.904;2023-05-31T06:31:56;99819.78;;;17.46;56.38
78117;BME280;69042;59.120;37.904;2023-05-31T06:34:24;99816.75;;;17.40;56.17
78117;BME280;69042;59.120;37.904;2023-05-31T06:36:52;99818.91;;;17.35;56.22
78117;BME280;69042;59.120;37.904;2023-05-31T06:39:19;99808.69;;;17.30;56.37
78117;BME280;69042;59.120;37.904;2023-05-31T06:41:45;99813.97;;;17.30;55.88
78117;BME280;69042;59.120;37.904;2023-05-31T06:44:47;99800.81;;;17.17;55.56
78117;BME280;69042;59.120;37.904;2023-05-31T06:47:27;99804.50;;;17.03;55.83
78117;BME280;69042;59.120;37.904;2023-05-31T06:50:25;99794.03;;;17.02;56.02
78117;BME280;69042;59.120;37.904;2023-05-31T06:53:09;99792.47;;;16.99;56.09
78117;BME280;69042;59.120;37.904;2023-05-31T06:55:47;99783.72;;;16.99;56.00
78117;BME280;69042;59.120;37.904;2023-05-31T06:58:18;99789.97;;;16.98;56.07
78117;BME280;69042;59.120;37.904;2023-05-31T07:00:47;99780.97;;;17.00;56.07
78117;BME280;69042;59.120;37.904;2023-05-31T07:03:13;99777.16;;;17.04;56.20
78117;BME280;69042;59.120;37.904;2023-05-31T07:05:39;99776.09;;;17.07;55.85
78117;BME280;69042;59.120;37.904;2023-05-31T07:08:08;99778.38;;;17.12;56.22
78117;BME280;69042;59.120;37.904;2023-05-31T07:10:44;99766.28;;;17.20;56.29
78117;BME280;69042;59.120;37.904;2023-05-31T07:13:11;99768.25;;;17.30;55.81
78117;BME280;69042;59.120;37.904;2023-05-31T07:15:38;99766.19;;;17.33;55.91
78117;BME280;69042;59.120;37.904;2023-05-31T07:18:04;99760.69;;;17.36;55.28
78117;BME280;69042;59.120;37.904;2023-05-31T07:20:32;99751.91;;;17.36;55.44
78117;BME280;69042;59.120;37.904;2023-05-31T07:22:58;99750.97;;;17.37;55.11
78117;BME280;69042;59.120;37.904;2023-05-31T07:25:25;99752.88;;;17.35;54.80
78117;BME280;69042;59.120;37.904;2023-05-31T07:27:51;99753.13;;;17.32;54.93
78117;BME280;69042;59.120;37.904;2023-05-31T07:30:17;99757.06;;;17.37;55.27
78117;BME280;69042;59.120;37.904;2023-05-31T07:32:43;99751.09;;;17.46;54.77
78117;BME280;69042;59.120;37.904;2023-05-31T07:35:09;99751.47;;;17.53;54.56
78117;BME280;69042;59.120;37.904;2023-05-31T07:37:36;99745.97;;;17.56;53.90
78117;BME280;69042;59.120;37.904;2023-05-31T07:40:02;99738.97;;;17.55;53.55
78117;BME280;69042;59.120;37.904;2023-05-31T07:42:31;99733.22;;;17.50;53.96
78117;BME280;69042;59.120;37.904;2023-05-31T07:44:57;99739.09;;;17.54;53.75
78117;BME280;69042;59.120;37.904;2023-05-31T07:47:24;99731.16;;;17.54;53.55
78117;BME280;69042;59.120;37.904;2023-05-31T07:49:50;99729.63;;;17.62;53.42
78117;BME280;69042;59.120;37.904;2023-05-31T07:52:18;99722.06;;;17.69;52.92
78117;BME280;69042;59.120;37.904;2023-05-31T07:54:48;99723.03;;;17.68;52.53
78117;BME280;69042;59.120;37.904;2023-05-31T07:57:15;99729.16;;;17.68;52.89
78117;BME280;69042;59.120;37.904;2023-05-31T07:59:42;99728.44;;;17.78;52.89
78117;BME280;69042;59.120;37.904;2023-05-31T08:02:08;99728.19;;;17.92;52.31
78117;BME280;69042;59.120;37.904;2023-05-31T08:04:34;99719.66;;;18.11;51.96
78117;BME280;69042;59.120;37.904;2023-05-31T08:07:01;99717.59;;;18.26;51.52
78117;BME280;69042;59.120;37.904;2023-05-31T08:09:27;99705.44;;;18.35;51.54
78117;BME280;69042;59.120;37.904;2023-05-31T08:11:53;99710.06;;;18.54;51.19
78117;BME280;69042;59.120;37.904;2023-05-31T08:14:20;99711.09;;;18.73;50.92
78117;BME280;69042;59.120;37.904;2023-05-31T08:16:46;99714.22;;;19.00;50.59
78117;BME280;69042;59.120;37.904;2023-05-31T08:19:15;99712.81;;;19.17;49.63
78117;BME280;69042;59.120;37.904;2023-05-31T08:21:41;99707.53;;;19.17;49.07
78117;BME280;69042;59.120;37.904;2023-05-31T08:24:07;99716.09;;;19.09;48.86
78117;BME280;69042;59.120;37.904;2023-05-31T08:26:34;99705.13;;;18.92;48.17
78117;BME280;69042;59.120;37.904;2023-05-31T08:29:00;99709.75;;;18.79;48.35
78117;BME280;69042;59.120;37.904;2023-05-31T08:31:27;99708.81;;;18.69;48.42
78117;BME280;69042;59.120;37.904;2023-05-31T08:33:57;99708.81;;;18.69;48.69
78117;BME280;69042;59.120;37.904;2023-05-31T08:36:24;99706.19;;;18.69;48.50
78117;BME280;69042;59.120;37.904;2023-05-31T08:38:51;99702.28;;;18.73;48.49
78117;BME280;69042;59.120;37.904;2023-05-31T08:41:18;99700.88;;;18.80;47.99
78117;BME280;69042;59.120;37.904;2023-05-31T08:43:45;99714.16;;;18.90;47.79
78117;BME280;69042;59.120;37.904;2023-05-31T08:46:15;99698.63;;;18.97;47.21
78117;BME280;69042;59.120;37.904;2023-05-31T08:48:52;99707.00;;;19.02;47.24
78117;BME280;69042;59.120;37.904;2023-05-31T08:51:19;99706.06;;;19.03;46.29
78117;BME280;69042;59.120;37.904;2023-05-31T08:53:50;99701.69;;;19.02;46.55
78117;BME280;69042;59.120;37.904;2023-05-31T08:56:18;99699.50;;;19.07;46.09
78117;BME280;69042;59.120;37.904;2023-05-31T08:58:49;99700.94;;;19.11;46.29
78117;BME280;69042;59.120;37.904;2023-05-31T09:01:20;99698.59;;;19.18;46.43
78117;BME280;69042;59.120;37.904;2023-05-31T09:03:47;99690.25;;;19.22;45.96
78117;BME280;69042;59.120;37.904;2023-05-31T09:06:13;99686.72;;;19.12;45.72
78117;BME280;69042;59.120;37.904;2023-05-31T09:08:39;99687.38;;;19.04;46.26
78117;BME280;69042;59.120;37.904;2023-05-31T09:11:06;99689.38;;;19.12;46.13
78117;BME280;69042;59.120;37.904;2023-05-31T09:13:33;99683.31;;;19.21;45.83
78117;BME280;69042;59.120;37.904;2023-05-31T09:16:00;99676.00;;;19.13;45.40
78117;BME280;69042;59.120;37.904;2023-05-31T09:18:27;99688.19;;;19.05;45.69
78117;BME280;69042;59.120;37.904;2023-05-31T09:20:57;99680.56;;;19.11;45.78
78117;BME280;69042;59.120;37.904;2023-05-31T09:23:24;99672.56;;;19.23;45.27
78117;BME280;69042;59.120;37.904;2023-05-31T09:25:52;99675.72;;;19.38;45.20
78117;BME280;69042;59.120;37.904;2023-05-31T09:28:20;99686.75;;;19.43;44.40
78117;BME280;69042;59.120;37.904;2023-05-31T09:31:07;99671.78;;;19.32;44.63
78117;BME280;69042;59.120;37.904;2023-05-31T09:33:38;99674.44;;;19.32;44.69
78117;BME280;69042;59.120;37.904;2023-05-31T09:36:08;99667.56;;;19.29;44.27
78117;BME280;69042;59.120;37.904;2023-05-31T09:38:36;99668.25;;;19.22;44.26
78117;BME280;69042;59.120;37.904;2023-05-31T09:43:44;99663.97;;;19.30;45.03
78117;BME280;69042;59.120;37.904;2023-05-31T09:46:16;99659.09;;;19.35;45.17
78117;BME280;69042;59.120;37.904;2023-05-31T09:48:43;99667.97;;;19.46;45.06
78117;BME280;69042;59.120;37.904;2023-05-31T09:51:11;99664.63;;;19.53;44.88
78117;BME280;69042;59.120;37.904;2023-05-31T09:53:43;99671.72;;;19.74;44.45
78117;BME280;69042;59.120;37.904;2023-05-31T09:56:12;99665.47;;;19.85;44.33
78117;BME280;69042;59.120;37.904;2023-05-31T09:58:43;99671.78;;;19.84;43.77
78117;BME280;69042;59.120;37.904;2023-05-31T10:01:09;99662.66;;;19.76;43.51
78117;BME280;69042;59.120;37.904;2023-05-31T10:03:36;99660.84;;;19.77;43.87
78117;BME280;69042;59.120;37.904;2023-05-31T10:06:03;99667.41;;;19.83;44.24
78117;BME280;69042;59.120;37.904;2023-05-31T10:08:30;99676.81;;;19.96;44.21
78117;BME280;69042;59.120;37.904;2023-05-31T10:11:00;99671.50;;;19.96;43.99
78117;BME280;69042;59.120;37.904;2023-05-31T10:13:27;99658.53;;;20.03;43.70
78117;BME280;69042;59.120;37.904;2023-05-31T10:16:02;99661.78;;;20.16;43.67
78117;BME280;69042;59.120;37.904;2023-05-31T10:18:31;99653.81;;;20.26;42.92
78117;BME280;69042;59.120;37.904;2023-05-31T10:23:25;99658.03;;;20.29;42.28
78117;BME280;69042;59.120;37.904;2023-05-31T10:28:42;99646.84;;;20.15;42.36
78117;BME280;69042;59.120;37.904;2023-05-31T10:31:11;99647.41;;;20.19;42.37
78117;BME280;69042;59.120;37.904;2023-05-31T10:33:48;99641.69;;;20.24;42.03
78117;BME280;69042;59.120;37.904;2023-05-31T10:43:35;99643.81;;;20.69;42.25
78117;BME280;69042;59.120;37.904;2023-05-31T13:46:35;99472.91;;;34.65;20.22
78117;BME280;69042;59.120;37.904;2023-05-31T13:49:02;99473.25;;;34.33;20.28
78117;BME280;69042;59.120;37.904;2023-05-31T13:51:28;99471.09;;;34.11;20.35
78117;BME280;69042;59.120;37.904;2023-05-31T13:53:54;99467.53;;;33.87;20.32
78117;BME280;69042;59.120;37.904;2023-05-31T13:56:20;99474.28;;;33.66;21.06
78117;BME280;69042;59.120;37.904;2023-05-31T13:58:47;99465.84;;;33.86;20.70
78117;BME280;69042;59.120;37.904;2023-05-31T14:01:13;99463.31;;;34.03;20.42
78117;BME280;69042;59.120;37.904;2023-05-31T14:03:40;99471.72;;;34.25;20.09
78117;BME280;69042;59.120;37.904;2023-05-31T14:06:06;99470.78;;;34.43;20.18
78117;BME280;69042;59.120;37.904;2023-05-31T14:08:34;99461.91;;;34.36;20.41
78117;BME280;69042;59.120;37.904;2023-05-31T14:11:00;99458.41;;;34.12;20.77
78117;BME280;69042;59.120;37.904;2023-05-31T14:13:26;99458.69;;;34.04;20.25
78117;BME280;69042;59.120;37.904;2023-05-31T14:15:55;99457.41;;;33.94;20.33
78117;BME280;69042;59.120;37.904;2023-05-31T14:18:22;99464.31;;;33.18;20.30
78117;BME280;69042;59.120;37.904;2023-05-31T14:20:49;99461.00;;;31.85;20.57
78117;BME280;69042;59.120;37.904;2023-05-31T14:23:17;99464.91;;;30.54;22.03
78117;BME280;69042;59.120;37.904;2023-05-31T14:25:43;99465.59;;;29.35;22.42
78117;BME280;69042;59.120;37.904;2023-05-31T14:28:09;99467.28;;;28.31;22.81
78117;BME280;69042;59.120;37.904;2023-05-31T14:30:35;99468.28;;;27.59;23.25
78117;BME280;69042;59.120;37.904;2023-05-31T14:33:02;99465.91;;;26.98;24.03
78117;BME280;69042;59.120;37.904;2023-05-31T14:35:30;99453.44;;;26.23;24.97
78117;BME280;69042;59.120;37.904;2023-05-31T14:37:56;99464.47;;;26.28;26.19
78117;BME280;69042;59.120;37.904;2023-05-31T14:40:22;99459.94;;;27.17;26.31
78117;BME280;69042;59.120;37.904;2023-05-31T14:42:49;99448.88;;;28.28;25.94
78117;BME280;69042;59.120;37.904;2023-05-31T14:45:15;99456.72;;;28.93;24.99
78117;BME280;69042;59.120;37.904;2023-05-31T14:47:42;99444.88;;;28.80;23.66
78117;BME280;69042;59.120;37.904;2023-05-31T14:50:09;99442.69;;;29.04;23.94
78117;BME280;69042;59.120;37.904;2023-05-31T14:52:35;99449.97;;;29.72;23.45
78117;BME280;69042;59.120;37.904;2023-05-31T14:55:01;99448.34;;;30.11;23.33
78117;BME280;69042;59.120;37.904;2023-05-31T14:57:27;99445.25;;;30.34;22.87
78117;BME280;69042;59.120;37.904;2023-05-31T14:59:53;99442.53;;;30.34;23.01
78117;BME280;69042;59.120;37.904;2023-05-31T15:02:20;99442.13;;;30.30;22.82
78117;BME280;69042;59.120;37.904;2023-05-31T15:04:46;99441.09;;;30.31;22.46
78117;BME280;69042;59.120;37.904;2023-05-31T15:07:12;99444.78;;;30.23;22.44
78117;BME280;69042;59.120;37.904;2023-05-31T15:09:39;99444.78;;;30.10;22.27
78117;BME280;69042;59.120;37.904;2023-05-31T15:12:05;99448.34;;;29.97;22.82
78117;BME280;69042;59.120;37.904;2023-05-31T15:14:32;99440.47;;;29.89;22.80
78117;BME280;69042;59.120;37.904;2023-05-31T15:16:58;99453.72;;;30.04;22.56
78117;BME280;69042;59.120;37.904;2023-05-31T15:19:25;99436.50;;;29.92;22.06
78117;BME280;69042;59.120;37.904;2023-05-31T15:21:51;99434.03;;;29.70;22.52
78117;BME280;69042;59.120;37.904;2023-05-31T15:24:17;99434.22;;;29.68;23.02
78117;BME280;69042;59.120;37.904;2023-05-31T15:26:43;99440.25;;;29.84;23.03
78117;BME280;69042;59.120;37.904;2023-05-31T15:29:09;99428.63;;;29.83;22.79
78117;BME280;69042;59.120;37.904;2023-05-31T15:31:37;99428.59;;;29.50;23.00
78117;BME280;69042;59.120;37.904;2023-05-31T15:34:05;99447.81;;;29.47;22.47
78117;BME280;69042;59.120;37.904;2023-05-31T15:36:31;99424.31;;;29.08;22.50
78117;BME280;69042;59.120;37.904;2023-05-31T15:39:01;99431.75;;;28.08;23.05
78117;BME280;69042;59.120;37.904;2023-05-31T15:41:29;99438.72;;;26.86;23.82
78117;BME280;69042;59.120;37.904;2023-05-31T15:43:56;99444.63;;;25.76;24.64
78117;BME280;69042;59.120;37.904;2023-05-31T15:46:22;99445.84;;;24.71;25.59
78117;BME280;69042;59.120;37.904;2023-05-31T15:48:48;99446.41;;;24.18;26.13
78117;BME280;69042;59.120;37.904;2023-05-31T15:51:15;99454.22;;;23.70;26.65
78117;BME280;69042;59.120;37.904;2023-05-31T15:53:41;99441.44;;;23.06;27.20
78117;BME280;69042;59.120;37.904;2023-05-31T15:56:07;99443.81;;;22.49;27.65
78117;BME280;69042;59.120;37.904;2023-05-31T15:58:33;99445.47;;;22.06;28.25
78117;BME280;69042;59.120;37.904;2023-05-31T16:01:00;99445.38;;;21.72;29.09
78117;BME280;69042;59.120;37.904;2023-05-31T16:03:26;99452.44;;;21.63;29.58
78117;BME280;69042;59.120;37.904;2023-05-31T16:05:53;99445.69;;;21.87;29.87
78117;BME280;69042;59.120;37.904;2023-05-31T16:08:19;99446.09;;;22.44;29.71
78117;BME280;69042;59.120;37.904;2023-05-31T16:10:45;99441.69;;;22.95;28.97
78117;BME280;69042;59.120;37.904;2023-05-31T16:13:11;99430.34;;;23.27;28.96
78117;BME280;69042;59.120;37.904;2023-05-31T16:15:37;99433.81;;;23.28;28.15
78117;BME280;69042;59.120;37.904;2023-05-31T16:18:03;99431.53;;;22.99;28.05